Linda — OJML — position and weather

sailwx.info

Track history (hours):
 
Tides and Currents Weather Stations Pressure Air Temp Water Temp Dewpoint Dewpoint Depression Visibility Wind Speed Wind Dir Waves Ship Positions

Linda

Last reported at 2016-Jul-24 15:33 UTC. Time now 2016-Jul-24 16:41 UTC.
Position N 59°44' E 024°31'.

Length 140 m; draft 7.2 m.

Type: Ship (hazmat cat A). MMSI: 230984000.

Date/timePositionNaut miles runAvg speedWind from/ knotsBaromVisibWave heightAir tempDewpointWater temp
2016-Jul-24 15:33N 59°44' E 024°31'1613.9
2016-Jul-24 14:24N 59°39' E 024°01'1214.1
2016-Jul-24 13:32N 59°35' E 023°38'1614.2
2016-Jul-24 12:25N 59°30' E 023°08'1214.0
2016-Jul-24 11:33N 59°26' E 022°46'306 6.4
2016-Jul-22 11:22N 55°49' E 016°01'1012.7
2016-Jul-22 10:33N 55°44' E 015°45'1312.6
2016-Jul-22 09:33N 55°38' E 015°26'1312.8
2016-Jul-22 08:33N 55°32' E 015°06'1312.8
2016-Jul-22 07:34N 55°25' E 014°47'2512.3
2016-Jul-22 05:33N 55°11' E 014°12'1312.9
2016-Jul-22 04:33N 55°11' E 013°49'1312.8
2016-Jul-22 03:33N 55°13' E 013°27'1312.8
2016-Jul-22 02:34N 55°14' E 013°05'1313.1
2016-Jul-22 01:33N 55°17' E 012°43'1111.4
2016-Jul-22 00:34N 55°29' E 012°41'9 8.8
2016-Jul-21 23:33N 55°37' E 012°42'1212.0
2016-Jul-21 22:34N 55°49' E 012°42'1313.3
2016-Jul-21 21:33N 56°02' E 012°39'1313.1
2016-Jul-21 20:33N 56°11' E 012°21'1514.7
2016-Jul-21 19:33N 56°21' E 012°02'1615.2
2016-Jul-21 18:32N 56°36' E 011°56'1715.1
2016-Jul-21 17:25N 56°52' E 011°48'1315.3
2016-Jul-21 16:33N 57°05' E 011°40'1515.3
2016-Jul-21 15:33N 57°19' E 011°29'1414.5
2016-Jul-21 14:33N 57°31' E 011°16'1414.3
2016-Jul-21 13:34N 57°41' E 010°56'1313.2
2016-Jul-21 12:33N 57°46' E 010°33'1313.2
2016-Jul-21 11:33N 57°42' E 010°10'1413.8
2016-Jul-21 10:31N 57°36' E 009°46'17214.4
2016-Jul-20 22:33N 55°22' E 006°28'6315.1
2016-Jul-20 18:21N 54°28' E 005°31'1415.6
2016-Jul-20 17:28N 54°16' E 005°18'1415.2
2016-Jul-20 16:33N 54°04' E 005°07'1515.2
2016-Jul-20 15:33N 53°50' E 004°59'1514.9
2016-Jul-20 14:33N 53°36' E 004°50'3514.3
2016-Jul-20 12:06N 53°04' E 004°25'814.2
2016-Jul-20 11:33N 52°57' E 004°19'1413.9
2016-Jul-20 10:33N 52°45' E 004°09'1413.8
2016-Jul-20 09:32N 52°33' E 003°57'1313.8
2016-Jul-20 08:33N 52°20' E 003°52'9 8.9
2016-Jul-20 07:33N 52°11' E 003°53'9 9.4
2016-Jul-20 06:34N 52°02' E 003°57'1514.7
2016-Jul-20 05:33N 51°54' E 004°17'5 4.9
2016-Jul-20 04:32N 51°53' E 004°25'0 0.0
2016-Jul-20 03:32N 51°53' E 004°25'0 0.0
2016-Jul-20 02:34N 51°53' E 004°25'0 0.0
2016-Jul-20 01:34N 51°53' E 004°25'0 0.0
2016-Jul-20 00:32N 51°53' E 004°25'0 0.0
2016-Jul-19 23:34N 51°53' E 004°25'0 0.0
2016-Jul-19 22:34N 51°53' E 004°25'0 0.0
2016-Jul-19 21:34N 51°53' E 004°25'0 0.0
2016-Jul-19 20:34N 51°53' E 004°25'0 0.0
2016-Jul-19 19:33N 51°53' E 004°25'0 0.0
2016-Jul-19 18:34N 51°53' E 004°25'0 0.0
2016-Jul-19 17:34N 51°53' E 004°25'0 0.0
2016-Jul-19 16:33N 51°53' E 004°25'0 0.0
2016-Jul-19 15:33N 51°53' E 004°25'0 0.0
2016-Jul-19 14:34N 51°53' E 004°25'0 0.0
2016-Jul-19 13:32N 51°53' E 004°25'0 0.0
2016-Jul-19 12:32N 51°53' E 004°25'0 0.0
2016-Jul-19 11:33N 51°53' E 004°25'0 0.0
2016-Jul-19 10:34N 51°53' E 004°25'0 0.0
2016-Jul-19 09:32N 51°53' E 004°25'0 0.0
2016-Jul-19 08:34N 51°53' E 004°25'1 0.8
2016-Jul-19 07:33N 51°53' E 004°24'4314.3
2016-Jul-19 04:32N 52°11' E 003°20'1414.2
2016-Jul-19 03:34N 52°20' E 003°03'1616.4
2016-Jul-19 02:33N 52°31' E 002°43'1616.1
2016-Jul-19 01:33N 52°41' E 002°22'1515.5
2016-Jul-19 00:34N 52°51' E 002°03'1515.2
2016-Jul-18 23:33N 53°01' E 001°44'1615.8
2016-Jul-18 22:33N 53°11' E 001°23'1615.8
2016-Jul-18 21:32N 53°24' E 001°06'4816.1
2016-Jul-18 18:33N 54°02' E 000°16'1717.2
2016-Jul-18 17:33N 54°14' W 000°04'1818.0
2016-Jul-18 16:33N 54°28' W 000°25'1817.8
2016-Jul-18 15:33N 54°37' W 000°50'8 0.7
2016-Jul-18 03:34N 54°44' W 001°00'1414.3
2016-Jul-18 02:33N 54°50' W 000°37'1414.5
2016-Jul-18 01:34N 54°56' W 000°15'39415.1
2016-Jul-16 23:32N 57°47' E 010°25'1313.8
2016-Jul-16 22:33N 57°46' E 010°50'1515.0
2016-Jul-16 21:33N 57°35' E 011°11'1515.2
2016-Jul-16 20:34N 57°24' E 011°29'1615.5
2016-Jul-16 19:33N 57°09' E 011°38'1615.6
2016-Jul-16 18:33N 56°54' E 011°48'1413.9
2016-Jul-16 17:33N 56°41' E 011°50'8914.8
2016-Jul-16 11:32N 55°15' E 011°06'1515.0
2016-Jul-16 10:34N 55°00' E 011°02'1414.1
2016-Jul-16 09:34N 54°47' E 010°52'1414.2
2016-Jul-16 08:34N 54°37' E 011°09'1514.9
2016-Jul-16 07:33N 54°30' E 011°32'1514.8
2016-Jul-16 06:33N 54°26' E 011°57'2913.9
2016-Jul-16 04:29N 54°44' E 012°36'3815.8
2016-Jul-16 02:06N 54°59' E 013°36'1015.9
2016-Jul-16 01:29N 55°02' E 013°52'1415.2
2016-Jul-16 00:33N 55°10' E 014°12'1615.9
2016-Jul-15 23:33N 55°23' E 014°30'1615.7
2016-Jul-15 22:33N 55°32' E 014°52'1615.6
2016-Jul-15 21:33N 55°40' E 015°16'  
Track history (hours):
 
Tides and Currents Weather Stations Pressure Air Temp Water Temp Dewpoint Dewpoint Depression Visibility Wind Speed Wind Dir Waves Ship Positions

Linda

Last reported at 2016-Jul-24 15:33 UTC. Time now 2016-Jul-24 16:41 UTC.
Position N 59°44' E 024°31'.

Length 140 m; draft 7.2 m.

Type: Ship (hazmat cat A). MMSI: 230984000.

Date/timePositionNaut miles runAvg speedWind from/ knotsBaromVisibWave heightAir tempDewpointWater temp
2016-Jul-24 15:33N 59°44' E 024°31'1613.9
2016-Jul-24 14:24N 59°39' E 024°01'1214.1
2016-Jul-24 13:32N 59°35' E 023°38'1614.2
2016-Jul-24 12:25N 59°30' E 023°08'1214.0
2016-Jul-24 11:33N 59°26' E 022°46'306 6.4
2016-Jul-22 11:22N 55°49' E 016°01'1012.7
2016-Jul-22 10:33N 55°44' E 015°45'1312.6
2016-Jul-22 09:33N 55°38' E 015°26'1312.8
2016-Jul-22 08:33N 55°32' E 015°06'1312.8
2016-Jul-22 07:34N 55°25' E 014°47'2512.3
2016-Jul-22 05:33N 55°11' E 014°12'1312.9
2016-Jul-22 04:33N 55°11' E 013°49'1312.8
2016-Jul-22 03:33N 55°13' E 013°27'1312.8
2016-Jul-22 02:34N 55°14' E 013°05'1313.1
2016-Jul-22 01:33N 55°17' E 012°43'1111.4
2016-Jul-22 00:34N 55°29' E 012°41'9 8.8
2016-Jul-21 23:33N 55°37' E 012°42'1212.0
2016-Jul-21 22:34N 55°49' E 012°42'1313.3
2016-Jul-21 21:33N 56°02' E 012°39'1313.1
2016-Jul-21 20:33N 56°11' E 012°21'1514.7
2016-Jul-21 19:33N 56°21' E 012°02'1615.2
2016-Jul-21 18:32N 56°36' E 011°56'1715.1
2016-Jul-21 17:25N 56°52' E 011°48'1315.3
2016-Jul-21 16:33N 57°05' E 011°40'1515.3
2016-Jul-21 15:33N 57°19' E 011°29'1414.5
2016-Jul-21 14:33N 57°31' E 011°16'1414.3
2016-Jul-21 13:34N 57°41' E 010°56'1313.2
2016-Jul-21 12:33N 57°46' E 010°33'1313.2
2016-Jul-21 11:33N 57°42' E 010°10'1413.8
2016-Jul-21 10:31N 57°36' E 009°46'17214.4
2016-Jul-20 22:33N 55°22' E 006°28'6315.1
2016-Jul-20 18:21N 54°28' E 005°31'1415.6
2016-Jul-20 17:28N 54°16' E 005°18'1415.2
2016-Jul-20 16:33N 54°04' E 005°07'1515.2
2016-Jul-20 15:33N 53°50' E 004°59'1514.9
2016-Jul-20 14:33N 53°36' E 004°50'3514.3
2016-Jul-20 12:06N 53°04' E 004°25'814.2
2016-Jul-20 11:33N 52°57' E 004°19'1413.9
2016-Jul-20 10:33N 52°45' E 004°09'1413.8
2016-Jul-20 09:32N 52°33' E 003°57'1313.8
2016-Jul-20 08:33N 52°20' E 003°52'9 8.9
2016-Jul-20 07:33N 52°11' E 003°53'9 9.4
2016-Jul-20 06:34N 52°02' E 003°57'1514.7
2016-Jul-20 05:33N 51°54' E 004°17'5 4.9
2016-Jul-20 04:32N 51°53' E 004°25'0 0.0
2016-Jul-20 03:32N 51°53' E 004°25'0 0.0
2016-Jul-20 02:34N 51°53' E 004°25'0 0.0
2016-Jul-20 01:34N 51°53' E 004°25'0 0.0
2016-Jul-20 00:32N 51°53' E 004°25'0 0.0
2016-Jul-19 23:34N 51°53' E 004°25'0 0.0
2016-Jul-19 22:34N 51°53' E 004°25'0 0.0
2016-Jul-19 21:34N 51°53' E 004°25'0 0.0
2016-Jul-19 20:34N 51°53' E 004°25'0 0.0
2016-Jul-19 19:33N 51°53' E 004°25'0 0.0
2016-Jul-19 18:34N 51°53' E 004°25'0 0.0
2016-Jul-19 17:34N 51°53' E 004°25'0 0.0
2016-Jul-19 16:33N 51°53' E 004°25'0 0.0
2016-Jul-19 15:33N 51°53' E 004°25'0 0.0
2016-Jul-19 14:34N 51°53' E 004°25'0 0.0
2016-Jul-19 13:32N 51°53' E 004°25'0 0.0
2016-Jul-19 12:32N 51°53' E 004°25'0 0.0
2016-Jul-19 11:33N 51°53' E 004°25'0 0.0
2016-Jul-19 10:34N 51°53' E 004°25'0 0.0
2016-Jul-19 09:32N 51°53' E 004°25'0 0.0
2016-Jul-19 08:34N 51°53' E 004°25'1 0.8
2016-Jul-19 07:33N 51°53' E 004°24'4314.3
2016-Jul-19 04:32N 52°11' E 003°20'1414.2
2016-Jul-19 03:34N 52°20' E 003°03'1616.4
2016-Jul-19 02:33N 52°31' E 002°43'1616.1
2016-Jul-19 01:33N 52°41' E 002°22'1515.5
2016-Jul-19 00:34N 52°51' E 002°03'1515.2
2016-Jul-18 23:33N 53°01' E 001°44'1615.8
2016-Jul-18 22:33N 53°11' E 001°23'1615.8
2016-Jul-18 21:32N 53°24' E 001°06'4816.1
2016-Jul-18 18:33N 54°02' E 000°16'1717.2
2016-Jul-18 17:33N 54°14' W 000°04'1818.0
2016-Jul-18 16:33N 54°28' W 000°25'1817.8
2016-Jul-18 15:33N 54°37' W 000°50'8 0.7
2016-Jul-18 03:34N 54°44' W 001°00'1414.3
2016-Jul-18 02:33N 54°50' W 000°37'1414.5
2016-Jul-18 01:34N 54°56' W 000°15'39415.1
2016-Jul-16 23:32N 57°47' E 010°25'1313.8
2016-Jul-16 22:33N 57°46' E 010°50'1515.0
2016-Jul-16 21:33N 57°35' E 011°11'1515.2
2016-Jul-16 20:34N 57°24' E 011°29'1615.5
2016-Jul-16 19:33N 57°09' E 011°38'1615.6
2016-Jul-16 18:33N 56°54' E 011°48'1413.9
2016-Jul-16 17:33N 56°41' E 011°50'8914.8
2016-Jul-16 11:32N 55°15' E 011°06'1515.0
2016-Jul-16 10:34N 55°00' E 011°02'1414.1
2016-Jul-16 09:34N 54°47' E 010°52'1414.2
2016-Jul-16 08:34N 54°37' E 011°09'1514.9
2016-Jul-16 07:33N 54°30' E 011°32'1514.8
2016-Jul-16 06:33N 54°26' E 011°57'2913.9
2016-Jul-16 04:29N 54°44' E 012°36'3815.8
2016-Jul-16 02:06N 54°59' E 013°36'1015.9
2016-Jul-16 01:29N 55°02' E 013°52'1415.2
2016-Jul-16 00:33N 55°10' E 014°12'1615.9
2016-Jul-15 23:33N 55°23' E 014°30'1615.7
2016-Jul-15 22:33N 55°32' E 014°52'1615.6
2016-Jul-15 21:33N 55°40' E 015°16'  

Dump ship's entire track history